createdAt,value
2019-03-11T00:00:16.563Z,79.41
2019-03-11T00:01:16.539Z,78.82
2019-03-11T00:02:16.540Z,78.37
2019-03-11T00:03:16.517Z,78.92
2019-03-11T00:04:17.395Z,78.47
2019-03-11T00:05:16.488Z,78.58
2019-03-11T00:06:16.526Z,81.16
2019-03-11T00:07:16.467Z,80.75
2019-03-11T00:08:16.454Z,78.47
2019-03-11T00:09:16.446Z,78.99
2019-03-11T00:10:16.446Z,79.82
2019-03-11T00:11:16.442Z,79.30
2019-03-11T00:12:16.414Z,78.37
2019-03-11T00:13:16.410Z,78.06
2019-03-11T00:14:16.390Z,78.47
2019-03-11T00:15:16.386Z,79.34
2019-03-11T00:16:16.388Z,79.13
2019-03-11T00:17:16.364Z,78.68
2019-03-11T00:18:16.349Z,78.89
2019-03-11T00:19:16.336Z,77.99
2019-03-11T00:20:16.327Z,78.09
2019-03-11T00:21:16.339Z,78.61
2019-03-11T00:22:16.304Z,79.13
2019-03-11T00:23:16.300Z,78.92
2019-03-11T00:24:16.279Z,78.61
2019-03-11T00:25:16.272Z,77.78
2019-03-11T00:26:16.261Z,78.51
2019-03-11T00:27:16.271Z,78.20
2019-03-11T00:28:16.239Z,79.24
2019-03-11T00:29:16.231Z,79.75
2019-03-11T00:30:16.223Z,78.41
2019-03-11T00:31:16.220Z,78.72
2019-03-11T00:32:16.210Z,77.58
2019-03-11T00:33:16.195Z,77.58
2019-03-11T00:34:16.174Z,79.13
2019-03-11T00:35:16.161Z,78.41
2019-03-11T00:36:16.164Z,80.06
2019-03-11T00:37:16.159Z,79.65
2019-03-11T00:38:16.133Z,77.16
2019-03-11T00:39:16.124Z,78.82
2019-03-11T00:40:16.109Z,78.82
2019-03-11T00:41:16.105Z,78.20
2019-03-11T00:42:16.108Z,77.99
2019-03-11T00:43:16.075Z,78.72
2019-03-11T00:44:16.066Z,77.68
2019-03-11T00:45:16.061Z,78.72
2019-03-11T00:46:16.042Z,76.33
2019-03-11T00:47:16.075Z,76.12
2019-03-11T00:48:16.025Z,77.06
2019-03-11T00:49:16.005Z,78.20
2019-03-11T00:50:15.995Z,79.34
2019-03-11T00:51:15.982Z,79.96
2019-03-11T00:52:15.990Z,79.03
2019-03-11T00:53:15.971Z,79.44
2019-03-11T00:54:15.957Z,79.65
2019-03-11T00:55:15.939Z,79.65
2019-03-11T00:56:15.931Z,80.47
2019-03-11T00:57:15.931Z,79.85
2019-03-11T00:58:15.929Z,80.37
2019-03-11T00:59:15.898Z,80.31
2019-03-11T01:00:15.889Z,80.10
2019-03-11T01:01:15.874Z,80.62
2019-03-11T01:02:15.865Z,80.52
2019-03-11T01:03:15.871Z,80.83
2019-03-11T01:04:15.846Z,76.89
2019-03-11T01:05:15.835Z,77.20
2019-03-11T01:06:15.842Z,78.96
2019-03-11T01:07:15.810Z,78.86
2019-03-11T01:08:15.816Z,77.30
2019-03-11T01:09:15.791Z,77.40
2019-03-11T01:10:15.777Z,77.51
2019-03-11T01:11:15.774Z,77.72
2019-03-11T01:12:15.762Z,76.68
2019-03-11T01:13:15.772Z,76.85
2019-03-11T01:14:15.734Z,75.71
2019-03-11T01:15:15.724Z,77.37
2019-03-11T01:16:15.712Z,74.57
2019-03-11T01:17:15.703Z,74.15
2019-03-11T01:18:15.711Z,76.75
2019-03-11T01:19:15.680Z,74.98
2019-03-11T01:20:15.678Z,75.60
2019-03-11T01:21:15.656Z,75.29
2019-03-11T01:22:15.649Z,75.81
2019-03-11T01:23:15.663Z,75.71
2019-03-11T01:24:15.627Z,75.60
2019-03-11T01:25:15.610Z,74.05
2019-03-11T01:26:15.601Z,73.74
2019-03-11T01:27:15.590Z,75.46
2019-03-11T01:28:15.579Z,76.02
2019-03-11T01:29:15.584Z,77.33
2019-03-11T01:30:15.566Z,75.36
2019-03-11T01:31:15.544Z,73.43
2019-03-11T01:32:15.539Z,75.15
2019-03-11T01:33:15.531Z,76.19
2019-03-11T01:34:15.536Z,75.67
2019-03-11T01:35:15.504Z,75.05
2019-03-11T01:36:15.501Z,73.60
2019-03-11T01:37:15.484Z,71.97
2019-03-11T01:38:15.469Z,72.67
2019-03-11T01:39:15.477Z,73.80
2019-03-11T01:40:15.458Z,73.53
2019-03-11T01:41:15.435Z,73.49
2019-03-11T01:42:15.426Z,74.11
2019-03-11T01:43:15.424Z,72.67
2019-03-11T01:44:15.420Z,72.15
2019-03-11T01:45:15.393Z,71.94
2019-03-11T01:46:15.384Z,73.28
2019-03-11T01:47:15.381Z,71.42
2019-03-11T01:48:15.368Z,71.94
2019-03-11T01:49:15.368Z,72.53
2019-03-11T01:50:15.346Z,73.46
2019-03-11T01:51:15.327Z,74.29
2019-03-11T01:52:15.316Z,71.08
2019-03-11T01:53:15.305Z,73.15
2019-03-11T01:54:15.324Z,72.74
2019-03-11T01:55:15.309Z,72.53
2019-03-11T01:56:15.285Z,74.08
2019-03-11T01:57:15.266Z,73.05
2019-03-11T01:58:15.250Z,72.94
2019-03-11T01:59:15.272Z,72.81
2019-03-11T02:00:15.252Z,73.22
2019-03-11T02:01:15.218Z,72.60
2019-03-11T02:02:15.214Z,74.36
2019-03-11T02:03:15.214Z,75.19
2019-03-11T02:04:15.215Z,73.63
2019-03-11T02:05:15.192Z,72.71
2019-03-11T02:06:15.168Z,71.56
2019-03-11T02:07:15.161Z,72.71
2019-03-11T02:08:15.143Z,72.71
2019-03-11T02:09:15.134Z,72.50
2019-03-11T02:10:15.142Z,71.88
2019-03-11T02:11:15.107Z,72.60
2019-03-11T02:12:15.097Z,73.11
2019-03-11T02:13:15.088Z,73.22
2019-03-11T02:14:15.084Z,73.63
2019-03-11T02:15:15.065Z,73.32
2019-03-11T02:16:15.070Z,72.71
2019-03-11T02:17:15.053Z,73.74
2019-03-11T02:18:15.030Z,74.15
2019-03-11T02:19:15.037Z,74.15
2019-03-11T02:20:15.040Z,73.01
2019-03-11T02:21:15.015Z,73.43
2019-03-11T02:22:14.993Z,72.71
2019-03-11T02:23:14.990Z,72.71
2019-03-11T02:24:14.966Z,73.22
2019-03-11T02:25:14.967Z,72.91
2019-03-11T02:26:14.963Z,72.60
2019-03-11T02:27:14.931Z,72.29
2019-03-11T02:28:14.924Z,71.77
2019-03-11T02:29:14.915Z,71.46
2019-03-11T02:30:14.905Z,71.98
2019-03-11T02:31:14.911Z,71.98
2019-03-11T02:32:14.882Z,72.08
2019-03-11T02:33:14.871Z,71.77
2019-03-11T02:34:14.861Z,72.91
2019-03-11T02:35:14.849Z,72.60
2019-03-11T02:36:14.870Z,72.29
2019-03-11T02:37:14.837Z,73.32
2019-03-11T02:38:14.824Z,71.67
2019-03-11T02:39:14.799Z,71.36
2019-03-11T02:40:14.803Z,71.67
2019-03-11T02:41:14.804Z,71.36
2019-03-11T02:42:14.769Z,71.56
2019-03-11T02:43:14.760Z,71.67
2019-03-11T02:44:14.753Z,70.70
2019-03-11T02:45:14.747Z,70.01
2019-03-11T02:46:14.753Z,69.98
2019-03-11T02:47:14.713Z,71.43
2019-03-11T02:48:14.703Z,69.56
2019-03-11T02:49:14.691Z,69.35
2019-03-11T02:50:14.682Z,69.46
2019-03-11T02:51:14.687Z,68.63
2019-03-11T02:52:14.667Z,69.35
2019-03-11T02:53:14.649Z,69.04
2019-03-11T02:54:14.643Z,67.70
2019-03-11T02:55:14.643Z,68.08
2019-03-11T02:56:14.635Z,69.01
2019-03-11T02:57:14.621Z,68.08
2019-03-11T02:58:14.604Z,68.29
2019-03-11T02:59:14.581Z,66.84
2019-03-11T03:00:14.570Z,67.39
2019-03-11T03:01:15.049Z,67.25
2019-03-11T03:02:14.550Z,67.25
2019-03-11T03:03:14.540Z,67.88
2019-03-11T03:04:14.536Z,66.94
2019-03-11T03:05:14.528Z,67.25
2019-03-11T03:06:14.504Z,66.94
2019-03-11T03:07:14.513Z,68.60
2019-03-11T03:08:14.483Z,67.25
2019-03-11T03:09:14.481Z,67.05
2019-03-11T03:10:14.464Z,66.53
2019-03-11T03:11:14.468Z,66.84
2019-03-11T03:12:14.472Z,66.94
2019-03-11T03:13:14.437Z,67.25
2019-03-11T03:14:14.423Z,66.84
2019-03-11T03:15:14.408Z,67.36
2019-03-11T03:16:14.406Z,66.63
2019-03-11T03:17:14.418Z,67.36
2019-03-11T03:18:14.371Z,66.91
2019-03-11T03:19:14.378Z,66.84
2019-03-11T03:20:14.355Z,67.05
2019-03-11T03:21:14.354Z,66.63
2019-03-11T03:22:14.357Z,67.36
2019-03-11T03:23:14.328Z,66.84
2019-03-11T03:24:14.308Z,66.81
2019-03-11T03:25:14.299Z,67.05
2019-03-11T03:26:14.286Z,66.32
2019-03-11T03:27:14.297Z,66.74
2019-03-11T03:28:14.289Z,66.53
2019-03-11T03:29:14.255Z,66.22
2019-03-11T03:30:14.283Z,67.15
2019-03-11T03:31:14.233Z,67.77
2019-03-11T03:32:14.238Z,66.91
2019-03-11T03:33:14.245Z,66.42
2019-03-11T03:34:14.203Z,66.84
2019-03-11T03:35:14.201Z,66.22
2019-03-11T03:36:14.182Z,66.91
2019-03-11T03:37:14.166Z,67.25
2019-03-11T03:38:28.811Z,66.84
2019-03-11T03:39:15.144Z,67.05
2019-03-11T03:40:14.142Z,66.84
2019-03-11T03:41:14.130Z,67.77
2019-03-11T03:42:14.117Z,67.77
2019-03-11T03:43:14.115Z,67.22
2019-03-11T03:44:14.090Z,67.22
2019-03-11T03:45:14.079Z,68.05
2019-03-11T03:46:19.122Z,67.74
2019-03-11T03:47:15.066Z,68.15
2019-03-11T03:48:14.124Z,70.12
2019-03-11T03:49:14.044Z,71.78
2019-03-11T03:50:14.040Z,71.60
2019-03-11T03:51:14.037Z,71.39
2019-03-11T03:52:14.005Z,71.67
2019-03-11T03:53:14.013Z,72.64
2019-03-11T03:54:13.985Z,73.46
2019-03-11T03:55:13.974Z,72.85
2019-03-11T03:56:13.962Z,73.15
2019-03-11T03:57:13.953Z,73.88
2019-03-11T03:58:13.966Z,74.12
2019-03-11T03:59:13.943Z,75.15
2019-03-11T04:00:13.934Z,75.43
2019-03-11T04:01:13.904Z,75.36
2019-03-11T04:02:13.896Z,75.46
2019-03-11T04:03:13.904Z,75.67
2019-03-11T04:04:13.902Z,74.98
2019-03-11T04:05:13.867Z,74.77
2019-03-11T04:06:13.859Z,76.53
2019-03-11T04:07:13.841Z,76.53
2019-03-11T04:08:13.868Z,76.64
2019-03-11T04:09:13.822Z,76.74
2019-03-11T04:10:13.806Z,77.05
2019-03-11T04:11:13.794Z,77.98
2019-03-11T04:12:13.792Z,77.40
2019-03-11T04:13:13.775Z,77.50
2019-03-11T04:14:13.784Z,77.05
2019-03-11T04:15:13.766Z,76.95
2019-03-11T04:16:13.742Z,76.88
2019-03-11T04:17:13.739Z,77.50
2019-03-11T04:18:13.733Z,77.15
2019-03-11T04:19:13.735Z,76.23
2019-03-11T04:20:13.698Z,76.74
2019-03-11T04:21:13.687Z,76.64
2019-03-11T04:22:13.682Z,77.57
2019-03-11T04:23:13.666Z,77.47
2019-03-11T04:24:13.684Z,77.67
2019-03-11T04:25:13.646Z,77.36
2019-03-11T04:26:13.635Z,77.05
2019-03-11T04:27:13.665Z,76.74
2019-03-11T04:28:13.615Z,77.47
2019-03-11T04:29:13.617Z,77.47
2019-03-11T04:30:13.618Z,76.32
2019-03-11T04:31:13.595Z,77.47
2019-03-11T04:32:13.566Z,77.36
2019-03-11T04:33:13.561Z,77.47
2019-03-11T04:34:13.549Z,77.67
2019-03-11T04:35:13.570Z,78.09
2019-03-11T04:36:13.536Z,77.50
2019-03-11T04:37:13.514Z,77.61
2019-03-11T04:38:13.500Z,77.50
2019-03-11T04:39:13.494Z,78.44
2019-03-11T04:40:13.493Z,78.75
2019-03-11T04:41:13.469Z,77.81
2019-03-11T04:42:13.463Z,78.64
2019-03-11T04:43:13.453Z,78.54
2019-03-11T04:44:13.443Z,78.75
2019-03-11T04:45:13.438Z,78.68
2019-03-11T04:46:13.413Z,78.37
2019-03-11T04:47:13.402Z,77.92
2019-03-11T04:48:13.413Z,78.27
2019-03-11T04:49:13.386Z,77.64
2019-03-11T04:50:13.399Z,77.44
2019-03-11T04:51:13.382Z,78.16
2019-03-11T04:52:13.358Z,78.58
2019-03-11T04:53:13.381Z,78.78
2019-03-11T04:54:13.341Z,78.89
2019-03-11T04:55:13.316Z,79.10
2019-03-11T04:56:13.326Z,78.68
2019-03-11T04:57:13.294Z,78.37
2019-03-11T04:58:13.282Z,77.95
2019-03-11T04:59:13.271Z,78.68
2019-03-11T05:00:13.265Z,78.68
2019-03-11T05:01:13.264Z,78.78
2019-03-11T05:02:13.237Z,78.06
2019-03-11T05:03:13.229Z,78.47
2019-03-11T05:04:13.216Z,78.41
2019-03-11T05:05:13.205Z,78.06
2019-03-11T05:06:13.216Z,79.03
2019-03-11T05:07:13.182Z,78.47
2019-03-11T05:08:13.177Z,78.89
2019-03-11T05:09:13.167Z,79.30
2019-03-11T05:10:15.959Z,79.24
2019-03-11T05:11:13.158Z,78.72
2019-03-11T05:12:13.137Z,78.61
2019-03-11T05:13:13.124Z,79.69
2019-03-11T05:14:13.106Z,81.14
2019-03-11T05:15:13.169Z,81.70
2019-03-11T05:16:13.099Z,81.49
2019-03-11T05:17:13.077Z,82.56
2019-03-11T05:18:13.066Z,83.29
2019-03-11T05:19:13.054Z,84.27
2019-03-11T05:20:13.045Z,84.27
2019-03-11T05:21:13.084Z,84.78
2019-03-11T05:22:13.038Z,85.30
2019-03-11T05:23:13.041Z,84.58
2019-03-11T05:24:13.000Z,86.17
2019-03-11T05:25:13.002Z,85.13
2019-03-11T05:26:12.985Z,86.27
2019-03-11T05:27:13.006Z,86.80
2019-03-11T05:28:12.960Z,85.86
2019-03-11T05:29:12.955Z,86.80
2019-03-11T05:30:12.946Z,85.96
2019-03-11T05:31:12.923Z,86.07
2019-03-11T05:32:12.925Z,84.86
2019-03-11T05:33:12.916Z,85.24
2019-03-11T05:34:12.890Z,86.38
2019-03-11T05:35:12.886Z,86.17
2019-03-11T05:36:12.882Z,85.44
2019-03-11T05:37:12.872Z,85.38
2019-03-11T05:38:12.856Z,85.06
2019-03-11T05:39:12.833Z,84.75
2019-03-11T05:40:12.823Z,84.34
2019-03-11T05:41:12.820Z,85.17
2019-03-11T05:42:12.826Z,84.55
2019-03-11T05:43:12.793Z,84.96
2019-03-11T05:44:12.786Z,85.17
2019-03-11T05:45:12.778Z,82.99
2019-03-11T05:46:12.765Z,83.40
2019-03-11T05:47:12.758Z,82.95
2019-03-11T05:48:12.750Z,83.40
2019-03-11T05:49:12.731Z,83.78
2019-03-11T05:50:12.716Z,82.78
2019-03-11T05:51:12.704Z,82.99
2019-03-11T05:52:12.702Z,83.05
2019-03-11T05:53:12.726Z,82.57
2019-03-11T05:54:12.683Z,81.84
2019-03-11T05:55:12.668Z,82.32
2019-03-11T05:56:12.647Z,82.84
2019-03-11T05:57:12.645Z,82.95
2019-03-11T05:58:12.648Z,82.53
2019-03-11T05:59:12.619Z,82.01
2019-03-11T06:00:12.602Z,80.35
2019-03-11T06:01:12.596Z,81.60
2019-03-11T06:02:12.578Z,81.39
2019-03-11T06:03:12.599Z,80.46
2019-03-11T06:04:12.564Z,82.22
2019-03-11T06:05:12.561Z,81.91
2019-03-11T06:06:12.548Z,82.68
2019-03-11T06:07:12.531Z,82.78
2019-03-11T06:08:12.545Z,83.58
2019-03-11T06:09:12.509Z,84.13
2019-03-11T06:10:12.497Z,84.65
2019-03-11T06:11:12.480Z,85.06
2019-03-11T06:12:12.470Z,84.65
2019-03-11T06:13:12.480Z,84.65
2019-03-11T06:14:12.460Z,84.96
2019-03-11T06:15:12.437Z,84.75
2019-03-11T06:16:12.430Z,84.86
2019-03-11T06:17:12.416Z,85.06
2019-03-11T06:18:12.412Z,85.17
2019-03-11T06:19:12.412Z,85.06
2019-03-11T06:20:12.386Z,84.75
2019-03-11T06:21:12.376Z,84.75
2019-03-11T06:22:12.373Z,84.03
2019-03-11T06:23:12.377Z,83.09
2019-03-11T06:24:12.340Z,84.55
2019-03-11T06:25:12.329Z,84.55
2019-03-11T06:26:12.329Z,85.03
2019-03-11T06:27:12.308Z,84.41
2019-03-11T06:28:12.292Z,85.06
2019-03-11T06:29:12.312Z,83.72
2019-03-11T06:30:12.278Z,83.61
2019-03-11T06:31:12.271Z,84.20
2019-03-11T06:32:12.267Z,83.99
2019-03-11T06:33:12.245Z,84.30
2019-03-11T06:34:12.253Z,83.99
2019-03-11T06:35:12.218Z,83.16
2019-03-11T06:36:12.208Z,81.15
2019-03-11T06:37:12.205Z,79.20
2019-03-11T06:38:12.188Z,78.86
2019-03-11T06:39:12.207Z,79.10
2019-03-11T06:40:12.198Z,78.68
2019-03-11T06:41:12.171Z,79.41
2019-03-11T06:42:12.150Z,78.51
2019-03-11T06:43:12.134Z,78.72
2019-03-11T06:44:12.146Z,78.41
2019-03-11T06:45:12.154Z,77.68
2019-03-11T06:46:12.103Z,76.85
2019-03-11T06:47:12.093Z,77.44
2019-03-11T06:48:12.075Z,77.33
2019-03-11T06:49:12.124Z,78.34
2019-03-11T06:50:12.062Z,78.82
2019-03-11T06:51:12.043Z,75.50
2019-03-11T06:52:12.036Z,75.67
2019-03-11T06:53:12.233Z,76.61
2019-03-11T06:54:12.045Z,75.05
2019-03-11T06:55:12.044Z,73.70
2019-03-11T06:56:11.998Z,73.05
2019-03-11T06:57:12.838Z,72.84
2019-03-11T06:58:11.972Z,72.11
2019-03-11T06:59:11.966Z,71.88
2019-03-11T07:00:11.993Z,72.53
2019-03-11T07:01:11.943Z,72.29
2019-03-11T07:02:11.922Z,72.08
2019-03-11T07:03:11.914Z,72.29
2019-03-11T07:04:11.903Z,72.67
2019-03-11T07:05:20.010Z,73.29
2019-03-11T07:06:12.882Z,72.53
2019-03-11T07:07:11.877Z,73.15
2019-03-11T07:08:11.858Z,73.98
2019-03-11T07:09:11.858Z,71.50
2019-03-11T07:10:11.861Z,69.84
2019-03-11T07:11:11.848Z,70.05
2019-03-11T07:12:11.811Z,71.47
2019-03-11T07:13:11.803Z,70.50
2019-03-11T07:14:11.792Z,72.16
2019-03-11T07:15:11.800Z,68.43
2019-03-11T07:16:11.786Z,68.19
2019-03-11T07:17:11.767Z,67.27
2019-03-11T07:18:11.756Z,66.23
2019-03-11T07:19:11.736Z,66.93
2019-03-11T07:20:11.725Z,67.44
2019-03-11T07:21:11.756Z,65.51
2019-03-11T07:22:11.704Z,65.95
2019-03-11T07:23:11.699Z,65.54
2019-03-11T07:24:11.683Z,67.50
2019-03-11T07:25:11.673Z,66.29
2019-03-11T07:26:11.681Z,66.71
2019-03-11T07:27:11.659Z,65.26
2019-03-11T07:28:11.640Z,66.84
2019-03-11T07:29:11.628Z,67.36
2019-03-11T07:30:11.620Z,67.98
2019-03-11T07:31:11.622Z,67.67
2019-03-11T07:32:11.599Z,69.01
2019-03-11T07:33:11.596Z,69.81
2019-03-11T07:34:11.574Z,67.64
2019-03-11T07:35:11.569Z,67.33
2019-03-11T07:36:11.573Z,65.64
2019-03-11T07:37:11.736Z,65.85
2019-03-11T07:38:11.539Z,65.02
2019-03-11T07:39:11.526Z,66.06
2019-03-11T07:40:11.555Z,65.02
2019-03-11T07:41:11.515Z,64.48
2019-03-11T07:42:11.486Z,66.13
2019-03-11T07:43:11.474Z,65.61
2019-03-11T07:44:11.468Z,65.06
2019-03-11T07:45:11.454Z,64.24
2019-03-11T07:46:11.465Z,67.24
2019-03-11T07:47:11.439Z,64.34
2019-03-11T07:48:11.434Z,67.00
2019-03-11T07:49:11.407Z,66.27
2019-03-11T07:50:11.409Z,64.28
2019-03-11T07:51:11.406Z,61.60
2019-03-11T07:52:11.399Z,62.01
2019-03-11T07:53:11.396Z,61.80
2019-03-11T07:54:11.360Z,61.70
2019-03-11T07:55:11.351Z,62.50
2019-03-11T07:56:11.336Z,60.44
2019-03-11T07:57:11.371Z,60.64
2019-03-11T07:58:11.311Z,60.31
2019-03-11T07:59:11.300Z,62.78
2019-03-11T08:00:11.292Z,60.17
2019-03-11T08:01:11.280Z,60.17
2019-03-11T08:02:11.298Z,59.84
2019-03-11T08:03:11.270Z,57.88
2019-03-11T08:04:11.247Z,57.88
2019-03-11T08:05:11.233Z,58.06
2019-03-11T08:06:18.481Z,56.54
2019-03-11T08:07:12.236Z,56.13
2019-03-11T08:08:11.294Z,59.01
2019-03-11T08:09:11.212Z,56.85
2019-03-11T08:10:11.179Z,59.84
2019-03-11T08:11:11.168Z,57.88
2019-03-11T08:12:11.157Z,60.35
2019-03-11T08:13:11.163Z,56.95
2019-03-11T08:14:11.135Z,55.00
2019-03-11T08:15:11.122Z,53.48
2019-03-11T08:16:11.116Z,55.13
2019-03-11T08:17:11.141Z,56.26
2019-03-11T08:18:11.107Z,55.13
2019-03-11T08:19:11.110Z,53.71
2019-03-11T08:20:11.070Z,54.22
2019-03-11T08:21:11.062Z,53.94
2019-03-11T08:22:11.051Z,53.01
2019-03-11T08:23:11.041Z,51.36
2019-03-11T08:24:11.050Z,52.39
2019-03-11T08:25:11.015Z,57.99
2019-03-11T08:26:11.008Z,57.06
2019-03-11T08:27:10.993Z,53.34
2019-03-11T08:28:11.021Z,56.13
2019-03-11T08:29:10.971Z,56.75
2019-03-11T08:30:10.960Z,55.41
2019-03-11T08:31:10.958Z,56.44
2019-03-11T08:32:10.939Z,55.00
2019-03-11T08:33:10.928Z,55.93
2019-03-11T08:34:10.944Z,54.58
2019-03-11T08:35:10.907Z,57.65
2019-03-11T08:36:10.902Z,55.20
2019-03-11T08:37:10.881Z,54.38
2019-03-11T08:38:10.877Z,51.70
2019-03-11T08:39:10.909Z,51.49
2019-03-11T08:40:10.851Z,53.86
2019-03-11T08:41:10.838Z,55.20
2019-03-11T08:42:10.832Z,52.62
2019-03-11T08:43:10.839Z,53.45
2019-03-11T08:44:10.827Z,54.27
2019-03-11T08:45:10.807Z,55.51
2019-03-11T08:46:10.784Z,53.55
2019-03-11T08:47:10.774Z,54.90
2019-03-11T08:48:10.765Z,55.62
2019-03-11T08:49:10.768Z,59.30
2019-03-11T08:50:10.897Z,59.53
2019-03-11T08:51:10.727Z,59.51
2019-03-11T08:52:10.718Z,58.06
2019-03-11T08:53:10.706Z,53.94
2019-03-11T08:54:10.711Z,55.28
2019-03-11T08:55:10.700Z,51.05
2019-03-11T08:56:10.679Z,51.67
2019-03-11T08:57:10.686Z,51.67
2019-03-11T08:58:10.657Z,53.83
2019-03-11T08:59:10.642Z,57.45
2019-03-11T09:00:10.645Z,52.29
2019-03-11T09:01:10.618Z,56.62
2019-03-11T09:02:10.614Z,53.53
2019-03-11T09:03:10.607Z,51.87
2019-03-11T09:04:10.591Z,54.14
2019-03-11T09:05:10.596Z,51.67
2019-03-11T09:06:10.563Z,53.83
2019-03-11T09:07:10.553Z,52.60
2019-03-11T09:08:10.544Z,53.53
2019-03-11T09:09:10.544Z,56.31
2019-03-11T09:10:10.535Z,54.86
2019-03-11T09:11:10.519Z,53.63
2019-03-11T09:12:10.498Z,53.83
2019-03-11T09:13:10.491Z,57.17
2019-03-11T09:14:10.483Z,52.70
2019-03-11T09:15:10.496Z,55.72
2019-03-11T09:16:10.460Z,53.94
2019-03-11T09:17:10.457Z,55.00
2019-03-11T09:18:10.432Z,56.75
2019-03-11T09:19:10.432Z,55.62
2019-03-11T09:20:10.411Z,53.55
2019-03-11T09:21:10.438Z,53.96
2019-03-11T09:22:10.389Z,57.29
2019-03-11T09:23:10.420Z,56.46
2019-03-11T09:24:18.722Z,57.70
2019-03-11T09:25:11.389Z,55.10
2019-03-11T09:26:10.367Z,57.47
2019-03-11T09:27:10.369Z,57.57
2019-03-11T09:28:10.327Z,57.89
2019-03-11T09:29:10.327Z,59.64
2019-03-11T09:30:10.302Z,57.78
2019-03-11T09:31:10.325Z,59.53
2019-03-11T09:32:10.289Z,54.79
2019-03-11T09:33:10.274Z,57.37
2019-03-11T09:34:10.262Z,60.36
2019-03-11T09:35:10.290Z,56.03
2019-03-11T09:36:10.265Z,57.57
2019-03-11T09:37:10.230Z,59.25
2019-03-11T09:38:10.224Z,60.18
2019-03-11T09:39:10.208Z,61.40
2019-03-11T09:40:10.196Z,64.93
2019-03-11T09:41:10.206Z,64.00
2019-03-11T09:42:10.175Z,66.93
2019-03-11T09:43:10.174Z,65.17
2019-03-11T09:44:10.147Z,66.72
2019-03-11T09:45:10.139Z,66.10
2019-03-11T09:46:10.147Z,67.75
2019-03-11T09:47:10.117Z,68.88
2019-03-11T09:48:10.113Z,68.68
2019-03-11T09:49:10.099Z,67.65
2019-03-11T09:50:10.098Z,66.69
2019-03-11T09:51:10.117Z,69.03
2019-03-11T09:52:10.091Z,75.01
2019-03-11T09:53:10.053Z,68.79
2019-03-11T09:54:10.041Z,69.48
2019-03-11T09:55:10.041Z,63.92
2019-03-11T09:56:10.039Z,64.53
2019-03-11T09:57:10.027Z,64.29
2019-03-11T09:58:10.009Z,64.92
2019-03-11T09:59:09.990Z,68.21
2019-03-11T10:00:09.976Z,69.21
2019-03-11T10:01:09.967Z,68.49
2019-03-11T10:02:12.269Z,68.66
2019-03-11T10:03:09.941Z,66.09
2019-03-11T10:04:09.932Z,65.95
2019-03-11T10:05:09.926Z,61.33
2019-03-11T10:06:09.930Z,64.51
2019-03-11T10:07:09.917Z,65.44
2019-03-11T10:08:10.973Z,61.22
2019-03-11T10:09:09.877Z,59.89
2019-03-11T10:10:09.882Z,63.72
2019-03-11T10:11:09.855Z,65.37
2019-03-11T10:12:09.857Z,62.07
2019-03-11T10:13:09.838Z,61.98
2019-03-11T10:14:09.822Z,60.22
2019-03-11T10:15:09.923Z,62.07
2019-03-11T10:16:09.802Z,64.44
2019-03-11T10:17:09.810Z,61.35
2019-03-11T10:18:09.783Z,64.44
2019-03-11T10:19:09.774Z,64.65
2019-03-11T10:20:09.760Z,63.96
2019-03-11T10:21:09.740Z,64.75
2019-03-11T10:22:09.744Z,66.33
2019-03-11T10:23:09.744Z,61.66
2019-03-11T10:24:09.713Z,60.94
2019-03-11T10:25:09.703Z,62.82
2019-03-11T10:26:09.693Z,63.45
2019-03-11T10:27:09.675Z,64.44
2019-03-11T10:28:09.678Z,60.46
2019-03-11T10:29:09.670Z,58.91
2019-03-11T10:30:09.644Z,60.25
2019-03-11T10:31:09.637Z,60.05
2019-03-11T10:32:09.619Z,57.47
2019-03-11T10:33:09.651Z,56.34
2019-03-11T10:34:09.624Z,55.82
2019-03-11T10:35:30.195Z,58.11
2019-03-11T10:36:10.581Z,59.66
2019-03-11T10:37:09.563Z,60.17
2019-03-11T10:38:09.578Z,60.07
2019-03-11T10:39:09.572Z,61.41
2019-03-11T10:40:09.547Z,58.32
2019-03-11T10:41:09.520Z,57.29
2019-03-11T10:42:09.513Z,55.85
2019-03-11T10:43:09.521Z,59.14
2019-03-11T10:44:09.491Z,57.73
2019-03-11T10:45:09.505Z,57.01
2019-03-11T10:46:09.479Z,56.36
2019-03-11T10:47:09.463Z,59.45
2019-03-11T10:48:09.463Z,58.81
2019-03-11T10:49:09.434Z,57.34
2019-03-11T10:50:09.419Z,56.80
2019-03-11T10:51:09.413Z,57.62
2019-03-11T10:52:09.495Z,55.77
2019-03-11T10:53:09.404Z,59.17
2019-03-11T10:54:09.382Z,58.01
2019-03-11T10:55:09.370Z,57.52
2019-03-11T10:56:09.357Z,56.57
2019-03-11T10:57:09.350Z,57.39
2019-03-11T10:58:09.352Z,57.82
2019-03-11T10:59:09.320Z,57.82
2019-03-11T11:00:09.309Z,58.14
2019-03-11T11:01:09.941Z,57.54
2019-03-11T11:02:09.287Z,56.82
2019-03-11T11:03:09.305Z,58.06
2019-03-11T11:04:09.270Z,57.54
2019-03-11T11:05:09.252Z,57.57
2019-03-11T11:06:09.246Z,57.26
2019-03-11T11:07:09.236Z,57.98
2019-03-11T11:08:09.224Z,55.00
2019-03-11T11:09:09.256Z,59.22
2019-03-11T11:10:09.205Z,57.78
2019-03-11T11:11:09.194Z,58.40
2019-03-11T11:12:09.187Z,56.41
2019-03-11T11:13:09.175Z,61.33
2019-03-11T11:14:09.187Z,60.30
2019-03-11T11:15:09.182Z,57.82
2019-03-11T11:16:09.237Z,60.30
2019-03-11T11:17:09.128Z,59.24
2019-03-11T11:18:09.121Z,59.03
2019-03-11T11:19:09.118Z,59.24
2019-03-11T11:20:09.095Z,57.39
2019-03-11T11:21:09.081Z,58.01
2019-03-11T11:22:09.067Z,57.90
2019-03-11T11:23:09.063Z,57.52
2019-03-11T11:24:09.063Z,56.08
2019-03-11T11:25:09.033Z,55.36
2019-03-11T11:26:09.024Z,58.24
2019-03-11T11:27:09.019Z,56.80
2019-03-11T11:28:09.002Z,53.71
2019-03-11T11:29:09.010Z,57.90
2019-03-11T11:30:08.981Z,57.16
2019-03-11T11:31:08.986Z,53.74
2019-03-11T11:32:08.965Z,54.97
2019-03-11T11:33:08.945Z,53.30
2019-03-11T11:34:08.944Z,53.36
2019-03-11T11:35:08.952Z,57.67
2019-03-11T11:36:08.918Z,53.33
2019-03-11T11:37:08.905Z,52.87
2019-03-11T11:38:08.893Z,52.03
2019-03-11T11:39:08.882Z,48.85
2019-03-11T11:40:08.899Z,48.44
2019-03-11T11:41:08.865Z,48.85
2019-03-11T11:42:08.847Z,48.85
2019-03-11T11:43:08.849Z,51.51
2019-03-11T11:44:08.863Z,50.59
2019-03-11T11:45:08.845Z,50.70
2019-03-11T11:46:08.821Z,47.52
2019-03-11T11:47:08.795Z,47.22
2019-03-11T11:48:08.804Z,51.62
2019-03-11T11:49:08.779Z,48.88
2019-03-11T11:50:08.782Z,49.18
2019-03-11T11:51:08.779Z,50.21
2019-03-11T11:52:08.733Z,48.90
2019-03-11T11:53:08.731Z,49.82
2019-03-11T11:54:08.722Z,48.31
2019-03-11T11:55:08.719Z,49.13
2019-03-11T11:56:08.728Z,48.72
2019-03-11T11:57:08.700Z,51.48
2019-03-11T11:58:08.674Z,48.31
2019-03-11T11:59:08.663Z,45.45
2019-03-11T12:00:08.676Z,43.22
2019-03-11T12:01:08.713Z,47.84
2019-03-11T12:02:08.641Z,47.66
2019-03-11T12:03:08.625Z,47.34
2019-03-11T12:04:08.613Z,47.24
2019-03-11T12:05:08.604Z,49.19
2019-03-11T12:06:08.607Z,48.79
2019-03-11T12:07:08.572Z,48.60
2019-03-11T12:08:08.565Z,45.72
2019-03-11T12:09:08.573Z,46.03
2019-03-11T12:10:08.552Z,48.71
2019-03-11T12:11:08.551Z,49.44
2019-03-11T12:12:08.521Z,50.58
2019-03-11T12:13:08.514Z,49.14
2019-03-11T12:14:08.511Z,47.49
2019-03-11T12:15:08.486Z,49.14
2019-03-11T12:16:08.503Z,49.04
2019-03-11T12:17:08.589Z,49.14
2019-03-11T12:18:08.454Z,49.44
2019-03-11T12:19:08.448Z,49.26
2019-03-11T12:20:08.434Z,49.47
2019-03-11T12:21:08.455Z,48.65
2019-03-11T12:22:08.471Z,48.65
2019-03-11T12:23:08.403Z,50.60
2019-03-11T12:24:08.397Z,51.94
2019-03-11T12:25:08.382Z,50.83
2019-03-11T12:26:08.382Z,49.29
2019-03-11T12:27:08.353Z,50.62
2019-03-11T12:28:08.366Z,51.04
2019-03-11T12:29:08.362Z,51.24
2019-03-11T12:30:08.328Z,50.93
2019-03-11T12:31:08.334Z,52.58
2019-03-11T12:32:08.323Z,53.41
2019-03-11T12:33:08.287Z,53.41
2019-03-11T12:34:08.284Z,52.99
2019-03-11T12:35:08.264Z,52.06
2019-03-11T12:36:08.255Z,49.47
2019-03-11T12:37:08.275Z,51.32
2019-03-11T12:38:08.238Z,51.14
2019-03-11T12:39:08.230Z,49.39
2019-03-11T12:40:08.214Z,51.55
2019-03-11T12:41:08.222Z,52.27
2019-03-11T12:42:08.206Z,51.94
2019-03-11T12:43:08.178Z,51.24
2019-03-11T12:44:08.168Z,50.60
2019-03-11T12:45:08.171Z,51.55
2019-03-11T12:46:08.248Z,48.44
2019-03-11T12:47:08.200Z,48.65
2019-03-11T12:48:08.216Z,48.96
2019-03-11T12:49:08.118Z,48.57
2019-03-11T12:50:08.107Z,49.16
2019-03-11T12:51:08.180Z,50.62
2019-03-11T12:52:08.105Z,50.32